Time;durP1;ratioP1;P1;durP2;ratioP2;P2;SDS_P1;SDS_P2;PMS_P1;PMS_P2;Temp;Humidity;BMP_temperature;BMP_pressure;BME280_temperature;BME280_humidity;BME280_pressure;Samples;Min_cycle;Max_cycle;Signal;HPM_P1;HPM_P2
2022/02/14 00:00:33;;;;;;;;;;;23.90;43.80;;;;;;1516007;77;1922;-73
2022/02/14 00:02:36;;;;;;;;;;;23.90;43.90;;;;;;1520710;78;731;-76
2022/02/14 00:04:37;;;;;;;;;;;23.90;43.70;;;;;;1522696;78;1156;-75
2022/02/14 00:06:39;;;;;;;;;;;23.90;43.80;;;;;;1516437;76;841;-80
2022/02/14 00:08:44;;;;;;;;;;;23.90;43.80;;;;;;1522731;77;800;-71
2022/02/14 00:10:45;;;;;;;;;;;23.90;44.10;;;;;;1516797;78;1651;-73
2022/02/14 00:12:47;;;;;;;;;;;23.90;43.90;;;;;;1521717;78;685;-73
2022/02/14 00:14:48;;;;;;;;;;;24.00;43.80;;;;;;1522674;76;1095;-71
2022/02/14 00:16:50;;;;;;;;;;;24.00;43.70;;;;;;1521998;77;719;-72
2022/02/14 00:18:52;;;;;;;;;;;24.00;43.70;;;;;;1522777;77;1939;-74
2022/02/14 00:20:54;;;;;;;;;;;24.00;43.70;;;;;;1518121;76;752;-70
2022/02/14 00:22:59;;;;;;;;;;;24.00;43.60;;;;;;1518414;78;756;-70
2022/02/14 00:25:01;;;;;;;;;;;24.00;43.60;;;;;;1518343;78;827;-70
2022/02/14 00:27:02;;;;;;;;;;;24.00;43.50;;;;;;1522674;78;781;-72
2022/02/14 00:29:04;;;;;;;;;;;23.90;43.60;;;;;;1520094;76;718;-71
2022/02/14 00:31:06;;;;;;;;;;;24.00;43.50;;;;;;1518864;78;715;-70
2022/02/14 00:33:08;;;;;;;;;;;24.00;43.40;;;;;;1516362;78;1216;-71
2022/02/14 00:35:13;;;;;;;;;;;23.90;43.40;;;;;;1517847;78;887;-70
2022/02/14 00:37:16;;;;;;;;;;;23.90;43.40;;;;;;1511127;76;840;-70
2022/02/14 00:39:17;;;;;;;;;;;23.90;43.40;;;;;;1514278;77;1914;-73
2022/02/14 00:41:19;;;;;;;;;;;23.90;43.40;;;;;;1518369;78;705;-70
2022/02/14 00:43:21;;;;;;;;;;;23.90;43.50;;;;;;1515522;77;1141;-69
2022/02/14 00:45:23;;;;;;;;;;;23.80;43.40;;;;;;1520294;77;727;-73
2022/02/14 00:47:25;;;;;;;;;;;23.90;43.60;;;;;;1522626;78;815;-70
2022/02/14 00:49:27;;;;;;;;;;;23.80;43.50;;;;;;1516123;76;749;-71
2022/02/14 00:51:29;;;;;;;;;;;23.80;43.60;;;;;;1522688;77;713;-71
2022/02/14 00:53:31;;;;;;;;;;;23.90;43.60;;;;;;1517128;78;1205;-72
2022/02/14 00:55:33;;;;;;;;;;;23.80;43.60;;;;;;1521626;77;714;-75
2022/02/14 00:57:34;;;;;;;;;;;23.80;43.60;;;;;;1519096;76;873;-71
2022/02/14 00:59:36;;;;;;;;;;;23.90;43.70;;;;;;1517463;78;1944;-71
2022/02/14 01:01:38;;;;;;;;;;;23.90;43.70;;;;;;1522280;77;737;-71
2022/02/14 01:03:40;;;;;;;;;;;23.90;43.70;;;;;;1522747;77;1137;-69
2022/02/14 01:05:42;;;;;;;;;;;23.80;43.60;;;;;;1522489;76;785;-71
2022/02/14 01:07:44;;;;;;;;;;;23.80;43.70;;;;;;1521794;77;696;-71
2022/02/14 01:09:46;;;;;;;;;;;23.80;43.60;;;;;;1519907;78;819;-74
2022/02/14 01:11:48;;;;;;;;;;;23.80;43.60;;;;;;1522650;78;683;-74
2022/02/14 01:13:50;;;;;;;;;;;23.90;43.60;;;;;;1518141;76;1137;-76
2022/02/14 01:15:51;;;;;;;;;;;23.80;43.50;;;;;;1519888;78;755;-71
2022/02/14 01:17:53;;;;;;;;;;;23.80;43.50;;;;;;1514017;77;787;-71
2022/02/14 01:19:55;;;;;;;;;;;23.90;43.60;;;;;;1521841;76;1930;-71
2022/02/14 01:21:57;;;;;;;;;;;23.80;43.50;;;;;;1522549;78;742;-71
2022/02/14 01:23:59;;;;;;;;;;;23.80;43.50;;;;;;1517460;78;1091;-71
2022/02/14 01:26:01;;;;;;;;;;;23.90;43.60;;;;;;1522159;78;683;-71
2022/02/14 01:28:03;;;;;;;;;;;23.90;43.60;;;;;;1522487;76;796;-73
2022/02/14 01:30:05;;;;;;;;;;;23.80;43.50;;;;;;1522571;78;749;-73
2022/02/14 01:32:07;;;;;;;;;;;23.90;43.60;;;;;;1522550;78;710;-74
2022/02/14 01:34:09;;;;;;;;;;;23.80;43.60;;;;;;1518439;78;1153;-74
2022/02/14 01:36:11;;;;;;;;;;;23.80;43.60;;;;;;1513390;78;737;-71
2022/02/14 01:38:13;;;;;;;;;;;23.80;43.70;;;;;;1518958;76;809;-71
2022/02/14 01:40:15;;;;;;;;;;;23.80;43.60;;;;;;1522687;78;1928;-71
2022/02/14 01:42:17;;;;;;;;;;;23.90;43.70;;;;;;1514873;78;721;-73
2022/02/14 01:44:38;;;;;;;;;;;23.80;43.70;;;;;;1519468;78;1133;-72
2022/02/14 01:46:40;;;;;;;;;;;23.90;43.70;;;;;;1511537;76;744;-75
2022/02/14 01:48:42;;;;;;;;;;;23.80;43.70;;;;;;1519825;78;779;-72
2022/02/14 01:50:45;;;;;;;;;;;23.90;43.80;;;;;;1521732;76;718;-71
2022/02/14 01:52:47;;;;;;;;;;;23.90;43.80;;;;;;1515923;78;743;-72
2022/02/14 01:54:49;;;;;;;;;;;23.90;43.80;;;;;;1522443;78;1120;-71
2022/02/14 01:56:51;;;;;;;;;;;23.90;43.80;;;;;;1520057;78;663;-72
2022/02/14 01:58:52;;;;;;;;;;;23.90;43.80;;;;;;1511392;76;732;-73
2022/02/14 02:00:55;;;;;;;;;;;23.90;43.90;;;;;;1519442;78;1938;-72
2022/02/14 02:02:57;;;;;;;;;;;23.90;43.90;;;;;;1520181;77;846;-73
2022/02/14 02:04:59;;;;;;;;;;;23.80;43.80;;;;;;1521183;77;810;-71
2022/02/14 02:07:01;;;;;;;;;;;23.90;43.90;;;;;;1522678;76;809;-72
2022/02/14 02:09:03;;;;;;;;;;;23.90;43.90;;;;;;1521965;77;797;-76
2022/02/14 02:13:25;;;;;;;;;;;23.90;43.90;;;;;;1521939;77;1644;-72
2022/02/14 02:15:26;;;;;;;;;;;23.90;43.90;;;;;;1522258;76;673;-72
2022/02/14 02:17:29;;;;;;;;;;;23.90;44.00;;;;;;1518453;78;698;-71
2022/02/14 02:19:31;;;;;;;;;;;23.80;43.90;;;;;;1519259;76;1935;-71
2022/02/14 02:21:33;;;;;;;;;;;23.80;43.90;;;;;;1518842;77;682;-71
2022/02/14 02:23:35;;;;;;;;;;;23.90;44.10;;;;;;1513876;77;2135;-65
2022/02/14 02:25:37;;;;;;;;;;;23.90;44.10;;;;;;1472696;79;729;-67
2022/02/14 02:27:39;;;;;;;;;;;23.80;44.00;;;;;;1469941;79;706;-67
2022/02/14 02:29:41;;;;;;;;;;;23.80;44.10;;;;;;1460790;79;774;-66
2022/02/14 02:31:43;;;;;;;;;;;23.90;44.20;;;;;;1470673;79;765;-66
2022/02/14 02:33:45;;;;;;;;;;;23.80;44.10;;;;;;1471797;79;1211;-66
2022/02/14 02:35:47;;;;;;;;;;;23.90;44.10;;;;;;1466803;81;699;-67
2022/02/14 02:37:49;;;;;;;;;;;23.90;44.10;;;;;;1472065;79;710;-65
2022/02/14 02:39:51;;;;;;;;;;;23.80;44.10;;;;;;1467777;79;1936;-65
2022/02/14 02:41:53;;;;;;;;;;;23.80;44.00;;;;;;1471923;79;795;-65
2022/02/14 02:43:55;;;;;;;;;;;23.80;44.00;;;;;;1469789;79;1131;-65
2022/02/14 02:45:57;;;;;;;;;;;23.90;44.20;;;;;;1471379;79;1093;-65
2022/02/14 02:47:59;;;;;;;;;;;23.80;44.10;;;;;;1472054;79;800;-65
2022/02/14 02:50:01;;;;;;;;;;;23.80;44.10;;;;;;1469278;79;729;-65
2022/02/14 02:52:03;;;;;;;;;;;23.90;44.20;;;;;;1468120;79;772;-65
2022/02/14 02:54:05;;;;;;;;;;;23.80;44.10;;;;;;1466367;79;1170;-65
2022/02/14 02:56:07;;;;;;;;;;;23.80;44.10;;;;;;1472997;79;765;-65
2022/02/14 02:58:09;;;;;;;;;;;23.80;44.10;;;;;;1472531;79;704;-66
2022/02/14 03:00:11;;;;;;;;;;;23.90;44.20;;;;;;1469661;79;1933;-65
2022/02/14 03:02:13;;;;;;;;;;;23.80;44.10;;;;;;1472238;79;679;-65
2022/02/14 03:04:16;;;;;;;;;;;23.90;44.20;;;;;;1471413;79;1188;-67
2022/02/14 03:06:18;;;;;;;;;;;23.90;44.20;;;;;;1487890;79;797;-66
2022/02/14 03:08:20;;;;;;;;;;;23.90;44.20;;;;;;1475138;79;730;-68
2022/02/14 03:10:21;;;;;;;;;;;23.90;44.30;;;;;;1475335;79;592;-67
2022/02/14 03:12:23;;;;;;;;;;;23.90;44.30;;;;;;1471541;79;663;-67
2022/02/14 03:14:25;;;;;;;;;;;23.90;44.30;;;;;;1475755;79;1150;-67
2022/02/14 03:16:27;;;;;;;;;;;23.90;44.30;;;;;;1472971;80;732;-66
2022/02/14 03:18:29;;;;;;;;;;;23.90;44.20;;;;;;1473051;80;791;-66
2022/02/14 03:20:31;;;;;;;;;;;23.90;44.30;;;;;;1472131;79;1935;-65
2022/02/14 03:22:33;;;;;;;;;;;23.90;44.40;;;;;;1477560;79;699;-65
2022/02/14 03:24:35;;;;;;;;;;;24.00;44.30;;;;;;1479749;79;1150;-66
2022/02/14 03:26:36;;;;;;;;;;;24.00;44.20;;;;;;1474186;79;626;-65
2022/02/14 03:28:38;;;;;;;;;;;24.00;44.10;;;;;;1472912;79;682;-65
2022/02/14 03:30:40;;;;;;;;;;;24.10;44.20;;;;;;1471346;79;776;-65
2022/02/14 03:32:42;;;;;;;;;;;24.10;44.10;;;;;;1472243;79;739;-65
2022/02/14 03:34:44;;;;;;;;;;;24.20;44.00;;;;;;1472690;79;1144;-65
2022/02/14 03:36:46;;;;;;;;;;;24.10;43.90;;;;;;1472849;79;781;-65
2022/02/14 03:38:48;;;;;;;;;;;24.20;43.90;;;;;;1481190;79;703;-66
2022/02/14 03:40:49;;;;;;;;;;;24.10;43.80;;;;;;1473057;79;1951;-64
2022/02/14 03:42:51;;;;;;;;;;;24.20;43.70;;;;;;1470131;79;597;-66
2022/02/14 03:44:53;;;;;;;;;;;24.20;43.70;;;;;;1471281;79;1159;-66
2022/02/14 03:46:55;;;;;;;;;;;24.20;43.60;;;;;;1469632;81;744;-67
2022/02/14 03:48:57;;;;;;;;;;;24.20;43.60;;;;;;1466281;79;775;-66
2022/02/14 03:51:00;;;;;;;;;;;24.30;43.60;;;;;;1461488;79;804;-65
2022/02/14 03:53:02;;;;;;;;;;;24.20;43.50;;;;;;1474910;79;735;-66
2022/02/14 03:55:04;;;;;;;;;;;24.20;43.40;;;;;;1471390;79;1157;-66
2022/02/14 03:57:06;;;;;;;;;;;24.30;43.50;;;;;;1472465;79;744;-65
2022/02/14 03:59:08;;;;;;;;;;;24.30;43.50;;;;;;1469642;79;782;-66
2022/02/14 04:01:09;;;;;;;;;;;24.30;43.40;;;;;;1460413;79;1934;-65
2022/02/14 04:03:11;;;;;;;;;;;24.30;43.50;;;;;;1472696;79;703;-66
2022/02/14 04:05:14;;;;;;;;;;;24.30;43.40;;;;;;1472820;79;1079;-65
2022/02/14 04:07:15;;;;;;;;;;;24.30;43.40;;;;;;1466713;79;740;-65
2022/02/14 04:09:18;;;;;;;;;;;24.30;43.40;;;;;;1470804;79;704;-66
2022/02/14 04:11:20;;;;;;;;;;;24.30;43.40;;;;;;1471161;79;747;-65
2022/02/14 04:13:22;;;;;;;;;;;24.20;43.30;;;;;;1479592;79;1141;-66
2022/02/14 04:15:23;;;;;;;;;;;24.30;43.40;;;;;;1472867;79;699;-66
2022/02/14 04:17:25;;;;;;;;;;;24.20;43.20;;;;;;1471368;81;685;-64
2022/02/14 04:19:27;;;;;;;;;;;24.20;43.30;;;;;;1468813;79;815;-65
2022/02/14 04:21:29;;;;;;;;;;;24.20;43.40;;;;;;1472554;81;1931;-64
2022/02/14 04:23:31;;;;;;;;;;;24.30;43.50;;;;;;1471008;81;1146;-65
2022/02/14 04:25:33;;;;;;;;;;;24.20;43.30;;;;;;1472654;81;781;-64
2022/02/14 04:27:35;;;;;;;;;;;24.30;43.40;;;;;;1472348;81;849;-65
2022/02/14 04:29:37;;;;;;;;;;;24.30;43.40;;;;;;1471995;79;858;-65
2022/02/14 04:31:38;;;;;;;;;;;24.30;43.40;;;;;;1469256;79;732;-65
2022/02/14 04:33:41;;;;;;;;;;;24.30;43.30;;;;;;1461581;79;1240;-66
2022/02/14 04:35:43;;;;;;;;;;;24.30;43.20;;;;;;1472249;81;743;-66
2022/02/14 04:37:45;;;;;;;;;;;24.30;43.20;;;;;;1469829;79;742;-65
2022/02/14 04:39:47;;;;;;;;;;;24.30;43.20;;;;;;1466018;79;794;-65
2022/02/14 04:41:49;;;;;;;;;;;24.30;43.10;;;;;;1470198;79;1935;-65
2022/02/14 04:43:52;;;;;;;;;;;24.30;43.10;;;;;;1470671;79;1170;-65
2022/02/14 04:45:54;;;;;;;;;;;24.30;43.00;;;;;;1468517;79;839;-66
2022/02/14 04:47:56;;;;;;;;;;;24.30;42.90;;;;;;1472788;81;783;-65
2022/02/14 04:49:58;;;;;;;;;;;24.30;42.90;;;;;;1469567;79;739;-66
2022/02/14 04:52:00;;;;;;;;;;;24.30;42.90;;;;;;1468977;79;796;-65
2022/02/14 04:54:02;;;;;;;;;;;24.30;42.80;;;;;;1468731;79;1154;-66
2022/02/14 04:56:04;;;;;;;;;;;24.40;42.80;;;;;;1472922;79;688;-66
2022/02/14 04:58:06;;;;;;;;;;;24.40;42.70;;;;;;1473154;79;759;-66
2022/02/14 05:00:08;;;;;;;;;;;24.40;42.70;;;;;;1469810;79;711;-65
2022/02/14 05:02:10;;;;;;;;;;;24.30;42.70;;;;;;1466872;79;1938;-66
2022/02/14 05:04:12;;;;;;;;;;;24.40;42.60;;;;;;1469602;79;1102;-65
2022/02/14 05:06:14;;;;;;;;;;;24.40;42.60;;;;;;1472893;79;746;-65
2022/02/14 05:08:16;;;;;;;;;;;24.40;42.60;;;;;;1465785;79;712;-66
2022/02/14 05:10:18;;;;;;;;;;;24.50;42.60;;;;;;1469953;79;725;-65
2022/02/14 05:12:20;;;;;;;;;;;24.50;42.60;;;;;;1473113;79;761;-66
2022/02/14 05:14:22;;;;;;;;;;;24.50;42.50;;;;;;1470555;79;1159;-66
2022/02/14 05:16:24;;;;;;;;;;;24.40;42.40;;;;;;1472967;79;745;-65
2022/02/14 05:18:26;;;;;;;;;;;24.40;42.40;;;;;;1466774;79;789;-66
2022/02/14 05:20:28;;;;;;;;;;;24.40;42.30;;;;;;1460917;79;769;-66
2022/02/14 05:22:29;;;;;;;;;;;24.40;42.30;;;;;;1464982;79;1952;-66
2022/02/14 05:24:31;;;;;;;;;;;24.40;42.30;;;;;;1471229;79;1190;-67
2022/02/14 05:26:33;;;;;;;;;;;24.40;42.20;;;;;;1472812;79;776;-65
2022/02/14 05:28:35;;;;;;;;;;;24.50;42.30;;;;;;1472264;79;809;-65
2022/02/14 05:30:37;;;;;;;;;;;24.40;42.10;;;;;;1471925;79;757;-65
2022/02/14 05:32:39;;;;;;;;;;;24.50;42.20;;;;;;1468216;79;918;-66
2022/02/14 05:34:41;;;;;;;;;;;24.50;42.20;;;;;;1466710;79;1169;-65
2022/02/14 05:36:43;;;;;;;;;;;24.50;42.20;;;;;;1468626;81;747;-67
2022/02/14 05:38:44;;;;;;;;;;;24.50;42.10;;;;;;1470408;79;665;-67
2022/02/14 05:40:46;;;;;;;;;;;24.50;42.20;;;;;;1472924;79;1939;-69
2022/02/14 05:42:48;;;;;;;;;;;24.50;42.20;;;;;;1469365;79;777;-66
2022/02/14 05:44:50;;;;;;;;;;;24.50;42.30;;;;;;1470756;79;1075;-65
2022/02/14 05:46:52;;;;;;;;;;;24.40;42.20;;;;;;1466119;79;726;-66
2022/02/14 05:48:54;;;;;;;;;;;24.50;42.20;;;;;;1472846;79;709;-65
2022/02/14 05:50:56;;;;;;;;;;;24.50;42.30;;;;;;1470713;79;788;-65
2022/02/14 05:52:58;;;;;;;;;;;24.50;42.20;;;;;;1470372;79;744;-65
2022/02/14 05:54:59;;;;;;;;;;;24.50;42.10;;;;;;1472314;81;1200;-67
2022/02/14 05:57:01;;;;;;;;;;;24.50;42.10;;;;;;1473091;79;688;-69
2022/02/14 05:59:03;;;;;;;;;;;24.50;41.90;;;;;;1473001;79;677;-65
2022/02/14 06:01:05;;;;;;;;;;;24.50;41.90;;;;;;1469567;79;1936;-66
2022/02/14 06:03:07;;;;;;;;;;;24.50;41.80;;;;;;1471331;79;763;-67
2022/02/14 06:05:09;;;;;;;;;;;24.60;41.80;;;;;;1472462;79;1123;-66
2022/02/14 06:07:11;;;;;;;;;;;24.60;41.80;;;;;;1472129;79;724;-66
2022/02/14 06:09:13;;;;;;;;;;;24.60;41.80;;;;;;1471107;79;697;-66
2022/02/14 06:11:14;;;;;;;;;;;24.60;41.80;;;;;;1468976;80;719;-67
2022/02/14 06:13:17;;;;;;;;;;;24.50;41.70;;;;;;1473838;79;864;-67
2022/02/14 06:15:19;;;;;;;;;;;24.50;41.70;;;;;;1472715;79;795;-68
2022/02/14 06:17:20;;;;;;;;;;;24.60;41.70;;;;;;1465364;79;834;-66
2022/02/14 06:19:22;;;;;;;;;;;24.60;41.70;;;;;;1466024;79;736;-66
2022/02/14 06:21:25;;;;;;;;;;;24.50;41.70;;;;;;1471948;80;1947;-67
2022/02/14 06:23:27;;;;;;;;;;;24.50;41.70;;;;;;1465563;79;1138;-65
2022/02/14 06:25:29;;;;;;;;;;;24.60;41.70;;;;;;1469336;79;744;-66
2022/02/14 06:27:31;;;;;;;;;;;24.50;41.70;;;;;;1472326;79;793;-65
2022/02/14 06:29:32;;;;;;;;;;;24.60;41.70;;;;;;1468594;79;725;-65
2022/02/14 06:31:34;;;;;;;;;;;24.50;41.70;;;;;;1472954;79;776;-66
2022/02/14 06:33:36;;;;;;;;;;;24.50;41.80;;;;;;1465824;79;1229;-65
2022/02/14 06:35:38;;;;;;;;;;;24.50;41.90;;;;;;1471900;79;752;-66
2022/02/14 06:37:43;;;;;;;;;;;24.50;41.80;;;;;;1461406;79;799;-67
2022/02/14 06:39:44;;;;;;;;;;;24.50;41.90;;;;;;1462924;79;1111;-67
2022/02/14 06:41:46;;;;;;;;;;;24.50;41.90;;;;;;1471713;79;1939;-67
2022/02/14 06:43:48;;;;;;;;;;;24.50;42.00;;;;;;1468069;79;1163;-68
2022/02/14 06:45:50;;;;;;;;;;;24.50;42.00;;;;;;1472808;79;738;-67
2022/02/14 06:47:52;;;;;;;;;;;24.60;41.90;;;;;;1468039;79;693;-68
2022/02/14 06:49:54;;;;;;;;;;;24.60;42.00;;;;;;1471363;79;732;-70
2022/02/14 06:51:55;;;;;;;;;;;24.60;41.90;;;;;;1469900;79;704;-68
2022/02/14 06:53:57;;;;;;;;;;;24.60;41.90;;;;;;1472562;79;1169;-67
2022/02/14 06:56:00;;;;;;;;;;;24.50;41.90;;;;;;1464183;79;740;-69
2022/02/14 06:58:02;;;;;;;;;;;24.50;41.80;;;;;;1472700;79;681;-66
2022/02/14 07:00:07;;;;;;;;;;;24.60;41.80;;;;;;1444498;81;705;-68
2022/02/14 07:02:09;;;;;;;;;;;24.60;41.80;;;;;;1472476;79;1943;-67
2022/02/14 07:04:11;;;;;;;;;;;24.60;41.80;;;;;;1472301;79;1155;-67
2022/02/14 07:06:14;;;;;;;;;;;24.50;41.80;;;;;;1465839;79;718;-68
2022/02/14 07:08:16;;;;;;;;;;;24.60;41.80;;;;;;1470048;79;676;-70
2022/02/14 07:10:18;;;;;;;;;;;24.60;41.80;;;;;;1466189;79;800;-67
2022/02/14 07:12:20;;;;;;;;;;;24.60;41.90;;;;;;1474910;79;732;-70
2022/02/14 07:14:24;;;;;;;;;;;24.70;42.00;;;;;;1476543;79;1168;-68
2022/02/14 07:16:26;;;;;;;;;;;24.60;41.90;;;;;;1466792;79;707;-67
2022/02/14 07:18:30;;;;;;;;;;;24.60;41.90;;;;;;1472750;79;718;-72
2022/02/14 07:20:31;;;;;;;;;;;24.60;41.90;;;;;;1467222;79;2019;-68
2022/02/14 07:22:34;;;;;;;;;;;24.70;42.00;;;;;;1471577;79;1943;-68
2022/02/14 07:24:36;;;;;;;;;;;24.60;41.90;;;;;;1472865;79;1155;-68
2022/02/14 07:26:38;;;;;;;;;;;24.60;41.80;;;;;;1467920;79;807;-68
2022/02/14 07:28:40;;;;;;;;;;;24.50;41.80;;;;;;1472831;79;859;-68
2022/02/14 07:30:43;;;;;;;;;;;24.60;41.80;;;;;;1480181;79;750;-68
2022/02/14 07:32:45;;;;;;;;;;;24.50;41.60;;;;;;1472926;79;717;-71
2022/02/14 07:34:47;;;;;;;;;;;24.40;41.30;;;;;;1460440;79;1219;-68
2022/02/14 07:36:49;;;;;;;;;;;24.40;40.70;;;;;;1472004;79;719;-70
2022/02/14 07:38:53;;;;;;;;;;;24.30;41.00;;;;;;1463440;79;709;-69
2022/02/14 07:40:55;;;;;;;;;;;24.30;40.80;;;;;;1469546;79;670;-70
2022/02/14 07:42:57;;;;;;;;;;;24.30;40.70;;;;;;1469531;79;1959;-70
2022/02/14 07:44:58;;;;;;;;;;;24.20;40.50;;;;;;1465664;79;1115;-70
2022/02/14 07:47:00;;;;;;;;;;;24.10;40.30;;;;;;1473016;79;760;-73
2022/02/14 07:49:02;;;;;;;;;;;24.10;40.00;;;;;;1465549;79;744;-68
2022/02/14 07:51:04;;;;;;;;;;;24.00;39.80;;;;;;1472885;79;719;-69
2022/02/14 07:53:09;;;;;;;;;;;23.90;39.30;;;;;;1472982;81;724;-68
2022/02/14 07:55:09;;;;;;;;;;;24.00;39.20;;;;;;1470485;79;1313;-70
2022/02/14 07:57:11;;;;;;;;;;;23.90;39.10;;;;;;1473179;79;707;-71
2022/02/14 07:59:14;;;;;;;;;;;23.90;38.80;;;;;;1472245;79;780;-73
2022/02/14 08:01:16;;;;;;;;;;;23.90;38.90;;;;;;1463737;79;731;-69
2022/02/14 08:03:21;;;;;;;;;;;23.90;38.70;;;;;;1469087;79;1917;-68
2022/02/14 08:05:22;;;;;;;;;;;23.80;38.40;;;;;;1472066;79;1166;-70
2022/02/14 08:07:24;;;;;;;;;;;23.80;38.20;;;;;;1472255;79;686;-71
2022/02/14 08:09:26;;;;;;;;;;;23.80;38.20;;;;;;1472489;79;815;-69
2022/02/14 08:11:27;;;;;;;;;;;23.80;38.10;;;;;;1472194;79;719;-69
2022/02/14 08:13:29;;;;;;;;;;;23.80;38.10;;;;;;1474709;79;1206;-70
2022/02/14 08:15:31;;;;;;;;;;;23.70;37.90;;;;;;1469868;79;701;-70
2022/02/14 08:17:33;;;;;;;;;;;23.80;37.90;;;;;;1465984;79;852;-68
2022/02/14 08:19:35;;;;;;;;;;;23.80;37.80;;;;;;1472035;79;609;-70
2022/02/14 08:21:37;;;;;;;;;;;23.90;38.00;;;;;;1462242;79;727;-69
2022/02/14 08:23:58;;;;;;;;;;;23.90;38.00;;;;;;1466624;79;1962;-69
2022/02/14 08:26:00;;;;;;;;;;;23.90;37.60;;;;;;1502832;77;691;-67
2022/02/14 08:28:02;;;;;;;;;;;23.80;37.80;;;;;;1484553;78;707;-67
2022/02/14 08:30:05;;;;;;;;;;;23.70;37.80;;;;;;1515480;78;677;-67
2022/02/14 08:32:06;;;;;;;;;;;23.70;37.80;;;;;;1515125;77;776;-66
2022/02/14 08:34:08;;;;;;;;;;;23.70;37.80;;;;;;1512275;77;1208;-67
2022/02/14 08:36:10;;;;;;;;;;;23.70;37.60;;;;;;1475986;80;792;-67
2022/02/14 08:38:12;;;;;;;;;;;23.60;37.30;;;;;;1474533;79;564;-68
2022/02/14 08:40:15;;;;;;;;;;;23.70;37.20;;;;;;1477864;79;752;-67
2022/02/14 08:42:17;;;;;;;;;;;23.70;37.00;;;;;;1477668;79;1919;-66
2022/02/14 08:44:18;;;;;;;;;;;23.70;36.80;;;;;;1465510;79;1159;-68
2022/02/14 08:46:21;;;;;;;;;;;23.70;36.70;;;;;;1471918;79;723;-67
2022/02/14 08:48:22;;;;;;;;;;;23.70;36.40;;;;;;1470983;80;732;-68
2022/02/14 08:50:24;;;;;;;;;;;23.70;36.30;;;;;;1490562;78;816;-67
2022/02/14 08:52:27;;;;;;;;;;;23.60;36.10;;;;;;1487147;79;852;-67
2022/02/14 08:54:29;;;;;;;;;;;23.70;36.00;;;;;;1478705;80;1149;-67
2022/02/14 08:56:31;;;;;;;;;;;23.70;35.70;;;;;;1476549;78;753;-68
2022/02/14 08:58:36;;;;;;;;;;;23.70;35.50;;;;;;1480284;78;749;-67
2022/02/14 09:00:38;;;;;;;;;;;23.70;35.00;;;;;;1477148;80;673;-66
2022/02/14 09:02:40;;;;;;;;;;;23.70;34.80;;;;;;1487436;78;1942;-65
2022/02/14 09:04:41;;;;;;;;;;;23.70;34.70;;;;;;1478187;78;1141;-68
2022/02/14 09:06:43;;;;;;;;;;;23.70;34.50;;;;;;1485474;80;729;-68
2022/02/14 09:08:45;;;;;;;;;;;23.70;34.30;;;;;;1489687;78;809;-67
2022/02/14 09:10:47;;;;;;;;;;;23.60;34.10;;;;;;1477520;80;736;-67
2022/02/14 09:12:49;;;;;;;;;;;23.60;33.10;;;;;;1479948;79;724;-67
2022/02/14 09:14:51;;;;;;;;;;;23.60;33.50;;;;;;1505020;78;1152;-66
2022/02/14 09:16:53;;;;;;;;;;;23.70;33.20;;;;;;1505181;79;702;-65
2022/02/14 09:18:55;;;;;;;;;;;23.70;33.40;;;;;;1505144;79;813;-65
2022/02/14 09:20:57;;;;;;;;;;;23.70;32.40;;;;;;1479211;80;727;-65
2022/02/14 09:23:00;;;;;;;;;;;23.70;32.60;;;;;;1489478;79;1942;-66
2022/02/14 09:25:02;;;;;;;;;;;23.70;32.60;;;;;;1495331;79;1126;-66
2022/02/14 09:27:06;;;;;;;;;;;23.70;32.00;;;;;;1491519;79;711;-66
2022/02/14 09:29:08;;;;;;;;;;;23.70;32.30;;;;;;1494817;79;733;-65
2022/02/14 09:31:10;;;;;;;;;;;23.60;31.70;;;;;;1495321;79;783;-65
2022/02/14 09:33:12;;;;;;;;;;;23.70;32.10;;;;;;1495392;79;820;-65
2022/02/14 09:35:26;;;;;;;;;;;23.70;32.00;;;;;;1488372;79;1142;-65
2022/02/14 09:37:17;;;;;;;;;;;23.70;31.80;;;;;;1474173;79;1616;-66
2022/02/14 09:39:19;;;;;;;;;;;23.70;31.90;;;;;;1477471;80;738;-66
2022/02/14 09:41:21;;;;;;;;;;;23.70;32.00;;;;;;1479152;80;797;-66
2022/02/14 09:43:23;;;;;;;;;;;23.80;31.90;;;;;;1473066;80;1936;-66
2022/02/14 09:45:25;;;;;;;;;;;23.80;31.50;;;;;;1471590;79;1079;-66
2022/02/14 09:47:27;;;;;;;;;;;23.90;31.00;;;;;;1476012;80;762;-65
2022/02/14 09:49:29;;;;;;;;;;;24.00;30.30;;;;;;1480787;79;731;-66
2022/02/14 09:51:31;;;;;;;;;;;24.10;30.50;;;;;;1480957;79;773;-65
2022/02/14 09:53:33;;;;;;;;;;;24.10;30.20;;;;;;1479651;79;764;-65
2022/02/14 09:55:35;;;;;;;;;;;24.10;30.30;;;;;;1478878;79;1126;-65
2022/02/14 09:57:37;;;;;;;;;;;24.10;30.10;;;;;;1480579;79;768;-65
2022/02/14 09:59:41;;;;;;;;;;;24.10;29.70;;;;;;1479645;79;804;-66
2022/02/14 10:01:43;;;;;;;;;;;24.20;29.40;;;;;;1471429;79;1072;-66
2022/02/14 10:03:52;;;;;;;;;;;24.10;30.10;;;;;;1480637;79;1918;-65
2022/02/14 10:05:56;;;;;;;;;;;24.00;28.70;;;;;;1478823;79;1149;-65
2022/02/14 10:07:57;;;;;;;;;;;23.90;27.10;;;;;;1479452;79;1891;-64
2022/02/14 10:10:01;;;;;;;;;;;23.80;27.80;;;;;;1447591;82;1224;-66
2022/02/14 10:12:08;;;;;;;;;;;23.70;27.80;;;;;;1476424;80;1940;-65
2022/02/14 10:14:15;;;;;;;;;;;23.70;27.50;;;;;;1476714;80;2032;-64
2022/02/14 10:16:17;;;;;;;;;;;23.60;27.60;;;;;;1468345;80;1559;-62
2022/02/14 10:18:25;;;;;;;;;;;23.60;28.20;;;;;;1507138;79;702;-64
2022/02/14 10:20:28;;;;;;;;;;;23.60;27.30;;;;;;1503478;79;713;-65
2022/02/14 10:22:30;;;;;;;;;;;23.60;27.50;;;;;;1472355;80;1915;-66
2022/02/14 10:24:32;;;;;;;;;;;23.60;27.80;;;;;;1496918;79;1140;-66
2022/02/14 10:26:37;;;;;;;;;;;23.60;27.90;;;;;;1444045;82;1156;-65
2022/02/14 10:28:39;;;;;;;;;;;23.60;27.80;;;;;;1477690;79;802;-66
2022/02/14 10:30:59;;;;;;;;;;;23.60;27.50;;;;;;1476564;79;742;-66
2022/02/14 10:33:01;;;;;;;;;;;23.60;27.60;;;;;;1479861;79;712;-67
2022/02/14 10:35:07;;;;;;;;;;;23.60;27.60;;;;;;1480723;79;1157;-68
2022/02/14 10:37:07;;;;;;;;;;;23.60;27.30;;;;;;1507156;79;1125;-65
2022/02/14 10:39:10;;;;;;;;;;;23.60;27.30;;;;;;1473666;80;724;-66
2022/02/14 10:41:13;;;;;;;;;;;23.50;26.50;;;;;;1476144;79;750;-65
2022/02/14 10:43:25;;;;;;;;;;;23.50;25.60;;;;;;1472079;80;1947;-70
2022/02/14 10:45:27;;;;;;;;;;;23.50;26.40;;;;;;1507160;79;1078;-69
2022/02/14 10:47:30;;;;;;;;;;;23.50;26.10;;;;;;1471648;79;732;-68
2022/02/14 10:49:32;;;;;;;;;;;23.50;25.90;;;;;;1490623;78;756;-68
2022/02/14 10:51:34;;;;;;;;;;;23.40;26.20;;;;;;1481224;79;743;-68
2022/02/14 10:53:43;;;;;;;;;;;23.50;26.70;;;;;;1490328;79;700;-68
2022/02/14 10:55:47;;;;;;;;;;;23.40;27.00;;;;;;1480757;80;735;-68
2022/02/14 10:57:49;;;;;;;;;;;23.40;27.40;;;;;;1486659;80;1067;-68
2022/02/14 11:00:01;;;;;;;;;;;23.50;27.90;;;;;;1469277;78;638;-68
2022/02/14 11:02:03;;;;;;;;;;;23.40;28.10;;;;;;1489591;79;919;-67
2022/02/14 11:04:05;;;;;;;;;;;23.40;28.50;;;;;;1496449;78;1942;-68
2022/02/14 11:06:07;;;;;;;;;;;23.50;28.80;;;;;;1480815;78;685;-69
2022/02/14 11:08:12;;;;;;;;;;;23.50;29.00;;;;;;1481376;79;711;-70
2022/02/14 11:10:15;;;;;;;;;;;23.50;29.20;;;;;;1481411;79;733;-68
2022/02/14 11:12:18;;;;;;;;;;;23.50;29.40;;;;;;1470780;80;729;-68
2022/02/14 11:14:19;;;;;;;;;;;23.60;29.50;;;;;;1506778;78;1200;-69
2022/02/14 11:16:21;;;;;;;;;;;23.50;29.70;;;;;;1503392;79;756;-68
2022/02/14 11:18:25;;;;;;;;;;;23.60;29.90;;;;;;1500107;78;745;-68
2022/02/14 11:20:28;;;;;;;;;;;23.60;30.00;;;;;;1474805;79;710;-68
2022/02/14 11:22:30;;;;;;;;;;;23.60;30.10;;;;;;1467895;80;739;-68
2022/02/14 11:24:33;;;;;;;;;;;23.70;30.40;;;;;;1440946;81;1949;-68
2022/02/14 11:26:45;;;;;;;;;;;23.70;30.50;;;;;;1469320;80;766;-67
2022/02/14 11:28:49;;;;;;;;;;;23.60;30.50;;;;;;1470838;80;1094;-68
2022/02/14 11:30:52;;;;;;;;;;;23.60;30.60;;;;;;1492340;79;761;-68
2022/02/14 11:33:05;;;;;;;;;;;23.70;30.80;;;;;;1487124;78;1830;-67
2022/02/14 11:35:17;;;;;;;;;;;23.70;30.90;;;;;;1493825;78;1165;-69
2022/02/14 11:37:12;;;;;;;;;;;23.70;31.10;;;;;;1493247;78;1709;-67
2022/02/14 11:39:16;;;;;;;;;;;23.70;31.20;;;;;;1487731;78;719;-67
2022/02/14 11:41:25;;;;;;;;;;;23.70;31.40;;;;;;1473877;80;1678;-68
2022/02/14 11:43:29;;;;;;;;;;;23.70;31.30;;;;;;1500245;79;1941;-67
2022/02/14 11:45:31;;;;;;;;;;;23.80;31.50;;;;;;1476080;79;1119;-67
2022/02/14 11:47:34;;;;;;;;;;;23.80;31.30;;;;;;1493461;79;742;-68
2022/02/14 11:49:39;;;;;;;;;;;23.90;31.40;;;;;;1489651;79;719;-69
2022/02/14 11:51:45;;;;;;;;;;;23.90;31.50;;;;;;1493352;79;804;-68
2022/02/14 11:53:47;;;;;;;;;;;23.90;31.60;;;;;;1491789;79;1176;-68
2022/02/14 11:55:49;;;;;;;;;;;23.90;31.70;;;;;;1492253;79;719;-67
2022/02/14 11:57:52;;;;;;;;;;;23.90;31.70;;;;;;1471259;79;795;-66
2022/02/14 11:59:55;;;;;;;;;;;24.00;31.80;;;;;;1491579;78;801;-67
2022/02/14 12:02:01;;;;;;;;;;;24.00;32.00;;;;;;1488158;78;1263;-67
2022/02/14 12:04:21;;;;;;;;;;;23.90;32.10;;;;;;1510828;77;1945;-67
2022/02/14 12:06:23;;;;;;;;;;;23.90;32.10;;;;;;1479092;79;745;-68
2022/02/14 12:08:25;;;;;;;;;;;23.90;32.30;;;;;;1472068;79;746;-68
2022/02/14 12:10:26;;;;;;;;;;;24.00;32.40;;;;;;1477494;79;728;-67
2022/02/14 12:12:51;;;;;;;;;;;23.90;32.50;;;;;;1473002;79;726;-67